createdAt,value
2022-11-19T00:00:46.050Z,10.27
2022-11-19T00:03:13.372Z,12.23
2022-11-19T00:05:40.597Z,29.95
2022-11-19T00:08:08.036Z,24.77
2022-11-19T00:10:35.794Z,12.82
2022-11-19T00:13:03.021Z,17.45
2022-11-19T00:15:30.182Z,15.68
2022-11-19T00:17:58.241Z,17.85
2022-11-19T00:20:25.457Z,22.70
2022-11-19T00:22:53.479Z,8.80
2022-11-19T00:25:20.707Z,11.90
2022-11-19T00:27:48.009Z,16.15
2022-11-19T00:30:40.774Z,11.23
2022-11-19T00:33:02.436Z,12.68
2022-11-19T00:35:29.646Z,20.55
2022-11-19T00:37:56.886Z,11.35
2022-11-19T00:40:24.139Z,17.00
2022-11-19T00:43:10.187Z,17.63
2022-11-19T00:45:37.484Z,14.30
2022-11-19T00:48:04.720Z,15.57
2022-11-19T00:50:31.955Z,17.70
2022-11-19T00:52:59.709Z,15.95
2022-11-19T00:55:26.976Z,19.00
2022-11-19T00:57:54.185Z,20.25
2022-11-19T01:00:21.468Z,16.08
2022-11-19T01:02:48.655Z,16.20
2022-11-19T01:05:15.855Z,20.48
2022-11-19T01:07:43.127Z,11.60
2022-11-19T01:10:10.315Z,20.75
2022-11-19T01:12:57.430Z,11.80
2022-11-19T01:15:24.639Z,19.45
2022-11-19T01:17:51.832Z,10.40
2022-11-19T01:20:19.214Z,17.45
2022-11-19T01:22:46.499Z,16.98
2022-11-19T01:25:14.340Z,20.88
2022-11-19T01:27:41.590Z,25.05
2022-11-19T01:30:08.879Z,10.43
2022-11-19T01:32:36.023Z,8.02
2022-11-19T01:35:03.821Z,15.10
2022-11-19T01:37:30.983Z,14.80
2022-11-19T01:39:58.182Z,17.52
2022-11-19T01:42:45.310Z,20.73
2022-11-19T01:45:12.543Z,17.35
2022-11-19T01:47:39.709Z,9.15
2022-11-19T01:50:06.924Z,15.30
2022-11-19T01:52:34.105Z,16.92
2022-11-19T01:55:01.953Z,20.35
2022-11-19T01:57:29.140Z,16.23
2022-11-19T01:59:56.376Z,12.18
2022-11-19T02:02:23.721Z,13.40
2022-11-19T02:04:54.093Z,11.68
2022-11-19T02:07:24.648Z,15.15
2022-11-19T02:09:51.925Z,19.88
2022-11-19T02:12:19.136Z,11.50
2022-11-19T02:14:49.315Z,12.85
2022-11-19T02:17:19.286Z,32.42
2022-11-19T02:19:46.491Z,28.17
2022-11-19T02:22:13.718Z,21.23
2022-11-19T02:24:40.912Z,18.65
2022-11-19T02:27:08.163Z,14.40
2022-11-19T02:29:35.331Z,24.15
2022-11-19T02:32:02.567Z,18.73
2022-11-19T02:34:29.827Z,27.52
2022-11-19T02:36:57.177Z,12.50
2022-11-19T02:39:24.342Z,16.33
2022-11-19T02:41:51.630Z,20.48
2022-11-19T02:44:37.574Z,17.15
2022-11-19T02:47:04.763Z,21.40
2022-11-19T02:49:31.951Z,13.32
2022-11-19T02:52:00.480Z,22.33
2022-11-19T02:54:27.795Z,16.30
2022-11-19T02:56:55.079Z,24.00
2022-11-19T02:59:40.980Z,14.18
2022-11-19T03:02:26.995Z,16.88
2022-11-19T03:04:54.304Z,17.60
2022-11-19T03:07:21.558Z,13.68
2022-11-19T03:09:48.781Z,12.25
2022-11-19T03:12:15.993Z,21.05
2022-11-19T03:15:02.152Z,14.05
2022-11-19T03:17:29.373Z,12.75
2022-11-19T03:19:56.518Z,25.73
2022-11-19T03:22:23.736Z,18.00
2022-11-19T03:24:50.914Z,13.48
2022-11-19T03:27:18.211Z,21.70
2022-11-19T03:29:45.380Z,10.50
2022-11-19T03:32:12.707Z,10.52
2022-11-19T03:34:39.892Z,21.00
2022-11-19T03:37:07.118Z,19.08
2022-11-19T03:39:34.334Z,16.63
2022-11-19T03:42:01.570Z,14.05
2022-11-19T03:44:28.745Z,14.32
2022-11-19T03:46:56.015Z,11.30
2022-11-19T03:49:23.230Z,15.82
2022-11-19T03:51:50.507Z,13.57
2022-11-19T03:54:17.744Z,12.30
2022-11-19T03:56:45.139Z,11.80
2022-11-19T03:59:12.873Z,18.65
2022-11-19T04:01:40.274Z,13.18
2022-11-19T04:04:26.355Z,13.50
2022-11-19T04:06:53.545Z,8.43
2022-11-19T04:09:21.179Z,11.85
2022-11-19T04:14:14.760Z,22.20
2022-11-19T04:16:41.913Z,13.65
2022-11-19T04:19:09.109Z,15.98
2022-11-19T04:21:36.322Z,22.23
2022-11-19T04:24:03.591Z,15.52
2022-11-19T04:26:30.819Z,20.27
2022-11-19T04:28:58.054Z,14.02
2022-11-19T04:31:25.268Z,16.88
2022-11-19T04:33:52.548Z,17.20
2022-11-19T04:36:19.751Z,9.90
2022-11-19T04:38:46.998Z,18.08
2022-11-19T04:41:14.195Z,11.38
2022-11-19T04:43:41.529Z,15.50
2022-11-19T04:46:08.719Z,16.58
2022-11-19T04:48:35.941Z,10.73
2022-11-19T04:51:03.175Z,12.93
2022-11-19T04:53:30.409Z,13.30
2022-11-19T04:55:57.595Z,15.02
2022-11-19T04:58:25.104Z,15.15
2022-11-19T05:00:52.337Z,12.55
2022-11-19T05:03:19.578Z,17.58
2022-11-19T05:05:46.789Z,15.30
2022-11-19T05:08:14.025Z,11.10
2022-11-19T05:10:41.231Z,9.15
2022-11-19T05:13:08.493Z,17.30
2022-11-19T05:15:35.680Z,10.50
2022-11-19T05:18:02.910Z,16.02
2022-11-19T05:20:30.164Z,21.08
2022-11-19T05:22:57.388Z,11.38
2022-11-19T05:25:24.619Z,14.20
2022-11-19T05:27:51.862Z,15.07
2022-11-19T05:30:19.185Z,25.98
2022-11-19T05:32:46.510Z,13.80
2022-11-19T05:35:14.149Z,10.45
2022-11-19T05:37:41.369Z,11.48
2022-11-19T05:40:08.523Z,6.53
2022-11-19T05:42:35.860Z,13.75
2022-11-19T05:45:03.287Z,11.95
2022-11-19T05:47:30.538Z,10.88
2022-11-19T05:49:57.804Z,18.45
2022-11-19T05:52:25.020Z,17.33
2022-11-19T05:54:52.299Z,12.18
2022-11-19T05:57:19.574Z,7.10
2022-11-19T05:59:46.842Z,9.15
2022-11-19T06:02:14.001Z,14.98
2022-11-19T06:04:41.341Z,5.80
2022-11-19T06:07:08.560Z,14.68
2022-11-19T06:09:35.855Z,5.40
2022-11-19T06:12:03.076Z,10.45
2022-11-19T06:14:30.364Z,15.27
2022-11-19T06:16:57.496Z,11.73
2022-11-19T06:19:24.802Z,4.75
2022-11-19T06:21:51.980Z,14.30
2022-11-19T06:24:19.197Z,13.57
2022-11-19T06:26:46.359Z,5.68
2022-11-19T06:29:13.741Z,11.05
2022-11-19T06:31:40.931Z,13.60
2022-11-19T06:34:08.157Z,8.75
2022-11-19T06:36:40.983Z,15.60
2022-11-19T06:41:37.463Z,12.35
2022-11-19T06:44:04.716Z,18.63
2022-11-19T06:46:31.916Z,15.40
2022-11-19T06:48:59.232Z,10.32
2022-11-19T06:51:26.424Z,15.43
2022-11-19T06:53:53.688Z,11.23
2022-11-19T06:56:20.851Z,10.77
2022-11-19T06:58:48.023Z,12.60
2022-11-19T07:01:15.417Z,16.45
2022-11-19T07:03:42.629Z,11.60
2022-11-19T07:06:09.845Z,13.68
2022-11-19T07:08:37.399Z,19.13
2022-11-19T07:11:24.583Z,9.60
2022-11-19T07:13:58.112Z,10.73
2022-11-19T07:16:25.407Z,19.23
2022-11-19T07:18:52.622Z,10.80
2022-11-19T07:21:19.911Z,7.93
2022-11-19T07:23:47.135Z,14.63
2022-11-19T07:26:14.314Z,8.50
2022-11-19T07:28:41.989Z,8.88
2022-11-19T07:31:09.274Z,16.67
2022-11-19T07:33:39.120Z,15.15
2022-11-19T07:36:06.778Z,21.75
2022-11-19T07:38:36.911Z,9.52
2022-11-19T07:41:24.377Z,6.47
2022-11-19T07:43:51.574Z,17.30
2022-11-19T07:46:18.741Z,11.40
2022-11-19T07:48:46.019Z,20.05
2022-11-19T07:51:13.185Z,7.00
2022-11-19T07:53:40.411Z,13.68
2022-11-19T07:56:07.655Z,19.02
2022-11-19T07:58:35.378Z,7.45
2022-11-19T08:01:02.565Z,10.70
2022-11-19T08:03:29.811Z,18.38
2022-11-19T08:05:57.008Z,5.28
2022-11-19T08:08:24.217Z,10.98
2022-11-19T08:10:51.388Z,11.35
2022-11-19T08:13:18.835Z,11.07
2022-11-19T08:15:45.999Z,15.15
2022-11-19T08:18:13.316Z,6.43
2022-11-19T08:20:40.504Z,27.33
2022-11-19T08:23:07.759Z,14.70
2022-11-19T08:25:37.119Z,11.10
2022-11-19T08:28:04.389Z,9.70
2022-11-19T08:30:31.943Z,11.40
2022-11-19T08:32:59.211Z,11.25
2022-11-19T08:35:26.480Z,17.52
2022-11-19T08:37:53.740Z,20.95
2022-11-19T08:40:20.972Z,15.23
2022-11-19T08:43:00.355Z,17.65
2022-11-19T08:45:27.548Z,16.00
2022-11-19T08:47:55.069Z,8.98
2022-11-19T08:50:22.427Z,10.23
2022-11-19T08:52:49.692Z,18.92
2022-11-19T08:55:17.535Z,21.02
2022-11-19T08:57:44.784Z,21.15
2022-11-19T09:00:12.056Z,18.10
2022-11-19T09:02:39.293Z,8.70
2022-11-19T09:05:09.573Z,8.20
2022-11-19T09:07:39.167Z,5.55
2022-11-19T09:10:06.375Z,14.65
2022-11-19T09:12:33.620Z,11.02
2022-11-19T09:15:00.821Z,12.75
2022-11-19T09:17:28.063Z,12.27
2022-11-19T09:19:55.217Z,12.45
2022-11-19T09:22:22.543Z,13.93
2022-11-19T09:24:49.707Z,12.57
2022-11-19T09:27:16.956Z,15.82
2022-11-19T09:29:44.196Z,15.02
2022-11-19T09:32:11.421Z,23.83
2022-11-19T09:34:40.827Z,16.67
2022-11-19T09:37:08.199Z,13.98
2022-11-19T09:39:35.626Z,13.30
2022-11-19T09:42:02.850Z,17.10
2022-11-19T09:44:30.097Z,11.95
2022-11-19T09:46:57.380Z,12.65
2022-11-19T09:49:24.567Z,11.75
2022-11-19T09:51:51.792Z,6.43
2022-11-19T09:54:19.421Z,8.20
2022-11-19T09:56:46.922Z,10.55
2022-11-19T09:59:14.161Z,14.35
2022-11-19T10:01:41.421Z,9.80
2022-11-19T10:04:08.605Z,14.65
2022-11-19T10:06:36.409Z,12.60
2022-11-19T10:09:03.617Z,16.02
2022-11-19T10:11:30.836Z,14.50
2022-11-19T10:13:58.066Z,12.75
2022-11-19T10:16:25.282Z,14.75
2022-11-19T10:18:52.502Z,10.18
2022-11-19T10:21:19.848Z,11.57
2022-11-19T10:23:46.995Z,13.02
2022-11-19T10:26:14.254Z,13.25
2022-11-19T10:28:41.443Z,15.35
2022-11-19T10:31:08.665Z,16.27
2022-11-19T10:33:35.851Z,14.43
2022-11-19T10:36:03.052Z,11.35
2022-11-19T10:38:31.126Z,14.20
2022-11-19T10:40:58.398Z,15.18
2022-11-19T10:43:25.566Z,14.20
2022-11-19T10:45:52.827Z,11.05
2022-11-19T10:48:20.067Z,7.28
2022-11-19T10:50:47.468Z,12.32
2022-11-19T10:53:14.747Z,13.98
2022-11-19T10:55:41.985Z,13.93
2022-11-19T10:58:09.283Z,13.30
2022-11-19T11:00:36.602Z,7.57
2022-11-19T11:03:03.899Z,8.27
2022-11-19T11:05:31.286Z,5.18
2022-11-19T11:07:58.554Z,10.98
2022-11-19T11:10:25.906Z,15.57
2022-11-19T11:13:11.823Z,13.90
2022-11-19T11:15:39.054Z,9.10
2022-11-19T11:18:06.249Z,16.08
2022-11-19T11:20:33.706Z,17.10
2022-11-19T11:23:00.916Z,15.90
2022-11-19T11:25:28.159Z,18.30
2022-11-19T11:27:55.371Z,15.00
2022-11-19T11:30:22.586Z,11.32
2022-11-19T11:32:49.759Z,15.85
2022-11-19T11:35:16.945Z,13.80
2022-11-19T11:37:44.123Z,9.43
2022-11-19T11:40:11.380Z,16.60
2022-11-19T11:42:38.596Z,8.25
2022-11-19T11:45:05.775Z,8.43
2022-11-19T11:47:33.044Z,11.32
2022-11-19T11:50:00.296Z,10.45
2022-11-19T11:52:27.523Z,9.13
2022-11-19T11:54:54.711Z,19.33
2022-11-19T11:57:21.936Z,15.10
2022-11-19T11:59:49.145Z,9.02
2022-11-19T12:02:16.380Z,12.20
2022-11-19T12:04:43.639Z,6.97
2022-11-19T12:07:10.903Z,27.98
2022-11-19T12:09:38.103Z,8.75
2022-11-19T12:12:05.739Z,16.50
2022-11-19T12:14:33.097Z,18.05
2022-11-19T12:17:00.319Z,11.32
2022-11-19T12:19:27.518Z,10.50
2022-11-19T12:21:54.770Z,11.70
2022-11-19T12:24:21.986Z,14.73
2022-11-19T12:26:49.329Z,9.63
2022-11-19T12:29:16.502Z,13.27
2022-11-19T12:31:43.716Z,7.40
2022-11-19T12:34:10.910Z,9.63
2022-11-19T12:36:38.148Z,15.63
2022-11-19T12:39:05.279Z,14.25
2022-11-19T12:41:32.586Z,7.47
2022-11-19T12:43:59.733Z,11.48
2022-11-19T12:46:26.990Z,8.55
2022-11-19T12:48:54.210Z,5.95
2022-11-19T12:51:21.461Z,14.85
2022-11-19T12:53:49.408Z,9.52
2022-11-19T12:56:16.651Z,11.27
2022-11-19T12:58:43.897Z,13.73
2022-11-19T13:01:11.169Z,11.23
2022-11-19T13:03:38.539Z,15.63
2022-11-19T13:06:05.708Z,8.10
2022-11-19T13:08:32.893Z,6.97
2022-11-19T13:11:00.182Z,13.73
2022-11-19T13:13:27.403Z,7.78
2022-11-19T13:15:54.571Z,6.00
2022-11-19T13:18:21.875Z,11.75
2022-11-19T13:20:49.075Z,13.88
2022-11-19T13:23:16.318Z,8.85
2022-11-19T13:25:43.745Z,6.95
2022-11-19T13:28:10.993Z,10.68
2022-11-19T13:30:38.240Z,10.02
2022-11-19T13:33:05.527Z,7.45
2022-11-19T13:35:32.730Z,7.93
2022-11-19T13:37:59.892Z,10.10
2022-11-19T13:40:27.134Z,9.55
2022-11-19T13:46:00.441Z,10.10
2022-11-19T13:48:27.597Z,14.18
2022-11-19T13:50:54.820Z,15.02
2022-11-19T13:53:22.075Z,10.65
2022-11-19T13:55:49.332Z,12.38
2022-11-19T13:58:16.483Z,10.85
2022-11-19T14:00:43.845Z,7.85
2022-11-19T14:03:11.066Z,7.82
2022-11-19T14:05:38.322Z,8.57
2022-11-19T14:08:05.605Z,12.70
2022-11-19T14:10:32.888Z,16.17
2022-11-19T14:13:00.086Z,7.22
2022-11-19T14:15:46.175Z,10.73
2022-11-19T14:18:32.123Z,8.25
2022-11-19T14:21:18.166Z,9.75
2022-11-19T14:24:04.265Z,18.75
2022-11-19T14:26:31.458Z,16.95
2022-11-19T14:28:58.608Z,9.48
2022-11-19T14:31:25.820Z,7.38
2022-11-19T14:33:53.008Z,4.50
2022-11-19T14:36:20.219Z,6.53
2022-11-19T14:38:47.454Z,9.07
2022-11-19T14:41:14.644Z,14.27
2022-11-19T14:44:00.636Z,10.60
2022-11-19T14:46:27.910Z,8.60
2022-11-19T14:48:55.102Z,11.27
2022-11-19T14:51:22.364Z,7.15
2022-11-19T14:53:49.546Z,7.32
2022-11-19T14:56:16.769Z,8.10
2022-11-19T14:58:44.321Z,4.97
2022-11-19T15:01:13.551Z,8.00
2022-11-19T15:03:42.748Z,10.32
2022-11-19T15:06:09.996Z,8.00
2022-11-19T15:08:37.268Z,4.45
2022-11-19T15:11:04.402Z,10.60
2022-11-19T15:13:31.641Z,8.80
2022-11-19T15:15:58.936Z,15.88
2022-11-19T15:18:26.214Z,10.20
2022-11-19T15:20:53.729Z,5.38
2022-11-19T15:23:21.170Z,6.68
2022-11-19T15:25:48.333Z,7.53
2022-11-19T15:28:15.549Z,18.38
2022-11-19T15:30:42.815Z,15.20
2022-11-19T15:33:10.100Z,11.88
2022-11-19T15:35:37.323Z,21.90
2022-11-19T15:38:04.610Z,5.53
2022-11-19T15:40:33.686Z,7.50
2022-11-19T15:43:00.900Z,6.93
2022-11-19T15:45:28.196Z,13.25
2022-11-19T15:47:55.410Z,7.50
2022-11-19T15:50:22.582Z,10.15
2022-11-19T15:52:49.815Z,13.48
2022-11-19T15:55:17.284Z,10.60
2022-11-19T15:57:44.558Z,12.05
2022-11-19T16:00:11.772Z,12.60
2022-11-19T16:02:39.030Z,8.93
2022-11-19T16:05:06.238Z,13.98
2022-11-19T16:07:33.745Z,13.77
2022-11-19T16:10:01.063Z,11.15
2022-11-19T16:12:47.206Z,11.45
2022-11-19T16:15:33.366Z,12.60
2022-11-19T16:18:00.626Z,18.00
2022-11-19T16:20:27.798Z,32.17
2022-11-19T16:22:55.039Z,24.65
2022-11-19T16:25:22.267Z,17.00
2022-11-19T16:27:49.500Z,20.50
2022-11-19T16:30:16.704Z,20.00
2022-11-19T16:32:44.034Z,19.45
2022-11-19T16:35:11.222Z,11.98
2022-11-19T16:37:38.463Z,16.50
2022-11-19T16:40:06.521Z,17.95
2022-11-19T16:42:33.774Z,13.25
2022-11-19T16:45:00.939Z,16.50
2022-11-19T16:47:28.233Z,16.35
2022-11-19T16:49:55.395Z,15.98
2022-11-19T16:52:22.623Z,17.77
2022-11-19T16:54:49.813Z,11.85
2022-11-19T16:57:17.046Z,18.08
2022-11-19T16:59:44.191Z,20.95
2022-11-19T17:02:11.581Z,10.15
2022-11-19T17:04:38.771Z,19.45
2022-11-19T17:07:06.104Z,12.35
2022-11-19T17:09:33.352Z,12.70
2022-11-19T17:12:19.114Z,11.50
2022-11-19T17:14:46.973Z,12.13
2022-11-19T17:17:14.212Z,13.95
2022-11-19T17:19:42.515Z,9.65
2022-11-19T17:22:09.841Z,15.15
2022-11-19T17:24:37.057Z,14.57
2022-11-19T17:27:04.234Z,11.15
2022-11-19T17:29:31.573Z,11.55
2022-11-19T17:31:58.776Z,16.30
2022-11-19T17:34:26.018Z,15.25
2022-11-19T17:36:53.304Z,11.00
2022-11-19T17:39:25.143Z,17.25
2022-11-19T17:42:11.733Z,18.50
2022-11-19T17:44:42.319Z,17.63
2022-11-19T17:47:20.814Z,19.60
2022-11-19T17:49:49.498Z,18.77
2022-11-19T17:52:20.239Z,12.20
2022-11-19T17:54:48.663Z,16.05
2022-11-19T17:57:15.833Z,24.55
2022-11-19T17:59:43.103Z,15.98
2022-11-19T18:02:10.366Z,19.83
2022-11-19T18:04:37.638Z,21.30
2022-11-19T18:07:05.083Z,23.83
2022-11-19T18:09:35.088Z,16.70
2022-11-19T18:12:03.448Z,20.08
2022-11-19T18:14:30.772Z,17.50
2022-11-19T18:16:58.065Z,17.73
2022-11-19T18:19:25.437Z,19.45
2022-11-19T18:21:52.646Z,20.30
2022-11-19T18:24:19.786Z,16.95
2022-11-19T18:26:47.116Z,23.23
2022-11-19T18:29:14.285Z,21.73
2022-11-19T18:31:41.539Z,17.27
2022-11-19T18:34:08.793Z,22.98
2022-11-19T18:36:36.197Z,29.92
2022-11-19T18:39:03.448Z,25.08
2022-11-19T18:41:30.754Z,26.35
2022-11-19T18:44:16.896Z,23.27
2022-11-19T18:46:44.341Z,27.15
2022-11-19T18:49:11.485Z,20.88
2022-11-19T18:51:38.769Z,22.35
2022-11-19T18:54:05.999Z,19.98
2022-11-19T18:56:33.324Z,20.30
2022-11-19T18:59:04.745Z,23.88
2022-11-19T19:01:32.469Z,24.73
2022-11-19T19:03:59.719Z,20.38
2022-11-19T19:06:27.095Z,31.17
2022-11-19T19:08:54.791Z,25.98
2022-11-19T19:11:40.863Z,20.95
2022-11-19T19:14:08.115Z,16.40
2022-11-19T19:16:35.530Z,24.35
2022-11-19T19:19:03.384Z,18.42
2022-11-19T19:21:31.098Z,31.17
2022-11-19T19:23:58.339Z,20.40
2022-11-19T19:26:25.558Z,22.55
2022-11-19T19:28:52.954Z,18.15
2022-11-19T19:31:20.142Z,22.15
2022-11-19T19:33:47.382Z,22.70
2022-11-19T19:36:14.643Z,21.77
2022-11-19T19:38:42.079Z,22.20
2022-11-19T19:41:09.290Z,18.48
2022-11-19T19:43:36.584Z,19.23
2022-11-19T19:46:04.471Z,22.25
2022-11-19T19:48:31.679Z,15.57
2022-11-19T19:50:58.929Z,19.17
2022-11-19T19:53:26.166Z,28.35
2022-11-19T19:55:53.358Z,21.23
2022-11-19T19:58:25.189Z,29.05
2022-11-19T20:00:55.266Z,20.63
2022-11-19T20:03:22.492Z,33.15
2022-11-19T20:05:49.807Z,27.27
2022-11-19T20:08:17.103Z,23.38
2022-11-19T20:10:44.336Z,24.73
2022-11-19T20:13:32.064Z,31.35
2022-11-19T20:15:59.435Z,28.33
2022-11-19T20:18:26.655Z,28.23
2022-11-19T20:20:54.276Z,30.48
2022-11-19T20:23:21.596Z,27.38
2022-11-19T20:25:48.811Z,27.85
2022-11-19T20:28:15.979Z,15.30
2022-11-19T20:30:43.194Z,22.20
2022-11-19T20:33:10.655Z,20.60
2022-11-19T20:35:37.953Z,25.85
2022-11-19T20:38:05.230Z,32.60
2022-11-19T20:40:32.439Z,26.83
2022-11-19T20:43:18.524Z,29.65
2022-11-19T20:45:45.750Z,25.63
2022-11-19T20:48:12.893Z,26.40
2022-11-19T20:50:40.132Z,21.65
2022-11-19T20:53:08.738Z,28.98
2022-11-19T20:55:44.297Z,38.95
2022-11-19T20:58:23.157Z,23.25
2022-11-19T21:00:50.310Z,33.22
2022-11-19T21:03:17.503Z,19.10
2022-11-19T21:05:44.796Z,25.33
2022-11-19T21:08:12.047Z,23.80
2022-11-19T21:10:39.260Z,34.60
2022-11-19T21:13:06.533Z,23.05
2022-11-19T21:15:33.717Z,25.98
2022-11-19T21:18:00.935Z,23.85
2022-11-19T21:20:28.184Z,28.05
2022-11-19T21:22:55.907Z,22.25
2022-11-19T21:25:23.068Z,21.67
2022-11-19T21:27:50.267Z,27.08
2022-11-19T21:30:19.277Z,24.25
2022-11-19T21:32:46.549Z,23.83
2022-11-19T21:35:13.775Z,32.75
2022-11-19T21:37:40.920Z,30.75
2022-11-19T21:40:08.140Z,26.65
2022-11-19T21:42:35.359Z,23.92
2022-11-19T21:45:02.600Z,26.45
2022-11-19T21:47:29.847Z,25.80
2022-11-19T21:50:00.679Z,31.17
2022-11-19T21:52:28.263Z,38.67
2022-11-19T21:54:55.547Z,29.45
2022-11-19T21:57:23.921Z,30.52
2022-11-19T21:59:51.087Z,46.42
2022-11-19T22:02:18.573Z,32.83
2022-11-19T22:04:45.803Z,37.00
2022-11-19T22:07:13.076Z,31.83
2022-11-19T22:09:40.354Z,29.85
2022-11-19T22:12:07.578Z,32.80
2022-11-19T22:14:34.796Z,25.27
2022-11-19T22:17:02.051Z,24.17
2022-11-19T22:19:29.383Z,25.15
2022-11-19T22:21:56.606Z,27.20
2022-11-19T22:24:23.839Z,20.85
2022-11-19T22:26:51.084Z,31.60
2022-11-19T22:29:18.393Z,23.27
2022-11-19T22:31:45.753Z,36.55
2022-11-19T22:34:13.106Z,21.35
2022-11-19T22:36:40.291Z,34.28
2022-11-19T22:39:07.495Z,30.23
2022-11-19T22:41:34.789Z,24.42
2022-11-19T22:44:02.217Z,34.13
2022-11-19T22:46:29.405Z,30.27
2022-11-19T22:48:56.672Z,20.20
2022-11-19T22:51:23.837Z,20.77
2022-11-19T22:53:50.997Z,28.77
2022-11-19T22:56:18.198Z,24.98
2022-11-19T22:58:45.556Z,21.63
2022-11-19T23:01:12.788Z,16.08
2022-11-19T23:03:40.125Z,26.70
2022-11-19T23:06:07.351Z,20.67
2022-11-19T23:08:34.557Z,27.10
2022-11-19T23:11:01.838Z,21.00
2022-11-19T23:13:32.346Z,14.15
2022-11-19T23:15:59.798Z,23.92
2022-11-19T23:18:27.074Z,24.02
2022-11-19T23:20:54.374Z,18.17
2022-11-19T23:23:21.538Z,16.02
2022-11-19T23:25:48.775Z,15.23
2022-11-19T23:28:15.945Z,28.00
2022-11-19T23:30:43.224Z,21.38
2022-11-19T23:33:10.371Z,14.63
2022-11-19T23:35:37.602Z,15.13
2022-11-19T23:38:04.769Z,24.70
2022-11-19T23:40:31.993Z,15.20
2022-11-19T23:42:59.210Z,17.15
2022-11-19T23:45:26.489Z,14.95
2022-11-19T23:47:53.711Z,18.48
2022-11-19T23:50:20.916Z,15.65
2022-11-19T23:52:48.097Z,19.65
2022-11-19T23:55:15.426Z,12.75
2022-11-19T23:57:42.600Z,17.83
